sensor_id;sensor_type;location;lat;lon;timestamp;P1;P2;P0
34240;PMS7003;20503;50.200;19.508;2024-02-28T00:00:13;60;45;27
34240;PMS7003;20503;50.200;19.508;2024-02-28T00:01:19;59;45;28
34240;PMS7003;20503;50.200;19.508;2024-02-28T00:02:21;64;47;27
34240;PMS7003;20503;50.200;19.508;2024-02-28T00:03:32;80;59;35
34240;PMS7003;20503;50.200;19.508;2024-02-28T00:04:34;81;58;35
34240;PMS7003;20503;50.200;19.508;2024-02-28T00:05:35;81;58;35
34240;PMS7003;20503;50.200;19.508;2024-02-28T00:06:41;78;56;34
34240;PMS7003;20503;50.200;19.508;2024-02-28T00:07:43;72;53;32
34240;PMS7003;20503;50.200;19.508;2024-02-28T00:08:47;71;53;31
34240;PMS7003;20503;50.200;19.508;2024-02-28T00:09:50;71;53;31
34240;PMS7003;20503;50.200;19.508;2024-02-28T00:10:52;67;50;29
34240;PMS7003;20503;50.200;19.508;2024-02-28T00:11:55;70;52;32
34240;PMS7003;20503;50.200;19.508;2024-02-28T00:12:56;70;51;32
34240;PMS7003;20503;50.200;19.508;2024-02-28T00:14:22;73;54;32
34240;PMS7003;20503;50.200;19.508;2024-02-28T00:15:24;73;54;32
34240;PMS7003;20503;50.200;19.508;2024-02-28T00:16:26;69;51;31
34240;PMS7003;20503;50.200;19.508;2024-02-28T00:17:27;69;51;31
34240;PMS7003;20503;50.200;19.508;2024-02-28T00:18:28;66;51;31
34240;PMS7003;20503;50.200;19.508;2024-02-28T00:19:31;66;51;31
34240;PMS7003;20503;50.200;19.508;2024-02-28T00:20:34;71;53;31
34240;PMS7003;20503;50.200;19.508;2024-02-28T00:21:36;71;53;31
34240;PMS7003;20503;50.200;19.508;2024-02-28T00:22:51;70;52;32
34240;PMS7003;20503;50.200;19.508;2024-02-28T00:23:53;70;52;32
34240;PMS7003;20503;50.200;19.508;2024-02-28T00:25:21;72;53;32
34240;PMS7003;20503;50.200;19.508;2024-02-28T00:26:29;72;53;33
34240;PMS7003;20503;50.200;19.508;2024-02-28T00:27:30;73;54;33
34240;PMS7003;20503;50.200;19.508;2024-02-28T00:28:32;81;61;37
34240;PMS7003;20503;50.200;19.508;2024-02-28T00:29:47;82;60;36
34240;PMS7003;20503;50.200;19.508;2024-02-28T00:30:48;76;56;34
34240;PMS7003;20503;50.200;19.508;2024-02-28T00:31:49;76;56;34
34240;PMS7003;20503;50.200;19.508;2024-02-28T00:32:51;80;58;35
34240;PMS7003;20503;50.200;19.508;2024-02-28T00:33:54;80;58;35
34240;PMS7003;20503;50.200;19.508;2024-02-28T00:34:55;79;57;35
34240;PMS7003;20503;50.200;19.508;2024-02-28T00:35:56;79;57;35
34240;PMS7003;20503;50.200;19.508;2024-02-28T00:36:58;78;58;35
34240;PMS7003;20503;50.200;19.508;2024-02-28T00:37:59;79;57;35
34240;PMS7003;20503;50.200;19.508;2024-02-28T00:39:02;79;57;35
34240;PMS7003;20503;50.200;19.508;2024-02-28T00:40:05;76;57;35
34240;PMS7003;20503;50.200;19.508;2024-02-28T00:41:10;76;57;35
34240;PMS7003;20503;50.200;19.508;2024-02-28T00:42:12;75;56;34
34240;PMS7003;20503;50.200;19.508;2024-02-28T00:43:14;73;54;34
34240;PMS7003;20503;50.200;19.508;2024-02-28T00:44:15;73;54;34
34240;PMS7003;20503;50.200;19.508;2024-02-28T00:45:16;72;54;33
34240;PMS7003;20503;50.200;19.508;2024-02-28T00:46:18;71;52;32
34240;PMS7003;20503;50.200;19.508;2024-02-28T00:47:20;67;49;31
34240;PMS7003;20503;50.200;19.508;2024-02-28T00:48:47;69;51;31
34240;PMS7003;20503;50.200;19.508;2024-02-28T00:49:49;67;51;31
34240;PMS7003;20503;50.200;19.508;2024-02-28T00:50:50;67;48;29
34240;PMS7003;20503;50.200;19.508;2024-02-28T00:51:52;67;48;29
34240;PMS7003;20503;50.200;19.508;2024-02-28T00:53:06;60;43;26
34240;PMS7003;20503;50.200;19.508;2024-02-28T00:54:08;60;43;26
34240;PMS7003;20503;50.200;19.508;2024-02-28T00:55:09;66;48;28
34240;PMS7003;20503;50.200;19.508;2024-02-28T00:56:11;56;41;25
34240;PMS7003;20503;50.200;19.508;2024-02-28T00:57:35;56;43;26
34240;PMS7003;20503;50.200;19.508;2024-02-28T00:58:52;52;41;26
34240;PMS7003;20503;50.200;19.508;2024-02-28T00:59:54;52;41;26
34240;PMS7003;20503;50.200;19.508;2024-02-28T01:00:56;55;41;25
34240;PMS7003;20503;50.200;19.508;2024-02-28T01:01:58;55;41;25
34240;PMS7003;20503;50.200;19.508;2024-02-28T01:02:59;54;41;26
34240;PMS7003;20503;50.200;19.508;2024-02-28T01:04:05;57;41;26
34240;PMS7003;20503;50.200;19.508;2024-02-28T01:05:08;57;41;26
34240;PMS7003;20503;50.200;19.508;2024-02-28T01:06:09;59;44;26
34240;PMS7003;20503;50.200;19.508;2024-02-28T01:07:11;59;44;26
34240;PMS7003;20503;50.200;19.508;2024-02-28T01:08:12;50;38;24
34240;PMS7003;20503;50.200;19.508;2024-02-28T01:09:14;50;38;24
34240;PMS7003;20503;50.200;19.508;2024-02-28T01:10:15;60;46;28
34240;PMS7003;20503;50.200;19.508;2024-02-28T01:11:17;73;54;33
34240;PMS7003;20503;50.200;19.508;2024-02-28T01:12:40;54;42;26
34240;PMS7003;20503;50.200;19.508;2024-02-28T01:13:42;55;41;24
34240;PMS7003;20503;50.200;19.508;2024-02-28T01:14:44;55;41;24
34240;PMS7003;20503;50.200;19.508;2024-02-28T01:15:46;70;49;28
34240;PMS7003;20503;50.200;19.508;2024-02-28T01:16:58;67;50;30
34240;PMS7003;20503;50.200;19.508;2024-02-28T01:18:00;69;51;31
34240;PMS7003;20503;50.200;19.508;2024-02-28T01:19:01;69;51;31
34240;PMS7003;20503;50.200;19.508;2024-02-28T01:20:17;62;45;27
34240;PMS7003;20503;50.200;19.508;2024-02-28T01:21:19;57;40;26
34240;PMS7003;20503;50.200;19.508;2024-02-28T01:22:20;57;40;26
34240;PMS7003;20503;50.200;19.508;2024-02-28T01:23:46;47;38;24
34240;PMS7003;20503;50.200;19.508;2024-02-28T01:24:47;47;38;24
34240;PMS7003;20503;50.200;19.508;2024-02-28T01:25:50;44;37;24
34240;PMS7003;20503;50.200;19.508;2024-02-28T01:26:51;44;37;24
34240;PMS7003;20503;50.200;19.508;2024-02-28T01:27:53;50;40;25
34240;PMS7003;20503;50.200;19.508;2024-02-28T01:28:56;52;38;24
34240;PMS7003;20503;50.200;19.508;2024-02-28T01:29:58;53;39;24
34240;PMS7003;20503;50.200;19.508;2024-02-28T01:30:59;53;39;24
34240;PMS7003;20503;50.200;19.508;2024-02-28T01:32:02;52;41;25
34240;PMS7003;20503;50.200;19.508;2024-02-28T01:33:04;56;42;26
34240;PMS7003;20503;50.200;19.508;2024-02-28T01:34:14;62;48;28
34240;PMS7003;20503;50.200;19.508;2024-02-28T01:35:43;59;44;27
34240;PMS7003;20503;50.200;19.508;2024-02-28T01:36:44;62;46;27
34240;PMS7003;20503;50.200;19.508;2024-02-28T01:37:46;62;46;27
34240;PMS7003;20503;50.200;19.508;2024-02-28T01:38:47;56;43;27
34240;PMS7003;20503;50.200;19.508;2024-02-28T01:39:48;58;43;28
34240;PMS7003;20503;50.200;19.508;2024-02-28T01:41:11;45;37;24
34240;PMS7003;20503;50.200;19.508;2024-02-28T01:42:13;46;36;23
34240;PMS7003;20503;50.200;19.508;2024-02-28T01:43:17;46;36;22
34240;PMS7003;20503;50.200;19.508;2024-02-28T01:44:19;43;36;23
34240;PMS7003;20503;50.200;19.508;2024-02-28T01:45:22;51;40;25
34240;PMS7003;20503;50.200;19.508;2024-02-28T01:46:25;51;40;25
34240;PMS7003;20503;50.200;19.508;2024-02-28T01:47:28;42;35;24
34240;PMS7003;20503;50.200;19.508;2024-02-28T01:48:31;42;35;24
34240;PMS7003;20503;50.200;19.508;2024-02-28T01:49:34;73;54;33
34240;PMS7003;20503;50.200;19.508;2024-02-28T01:50:36;73;54;33
34240;PMS7003;20503;50.200;19.508;2024-02-28T01:51:39;49;39;25
34240;PMS7003;20503;50.200;19.508;2024-02-28T01:52:42;42;33;22
34240;PMS7003;20503;50.200;19.508;2024-02-28T01:53:44;42;33;22
34240;PMS7003;20503;50.200;19.508;2024-02-28T01:54:47;41;33;20
34240;PMS7003;20503;50.200;19.508;2024-02-28T01:55:49;41;33;20
34240;PMS7003;20503;50.200;19.508;2024-02-28T01:56:54;42;32;20
34240;PMS7003;20503;50.200;19.508;2024-02-28T01:57:56;42;32;20
34240;PMS7003;20503;50.200;19.508;2024-02-28T01:59:17;42;36;22
34240;PMS7003;20503;50.200;19.508;2024-02-28T02:00:20;42;36;23
34240;PMS7003;20503;50.200;19.508;2024-02-28T02:01:45;48;37;24
34240;PMS7003;20503;50.200;19.508;2024-02-28T02:03:14;51;39;25
34240;PMS7003;20503;50.200;19.508;2024-02-28T02:04:43;51;39;25
34240;PMS7003;20503;50.200;19.508;2024-02-28T02:05:44;53;41;24
34240;PMS7003;20503;50.200;19.508;2024-02-28T02:06:47;53;41;26
34240;PMS7003;20503;50.200;19.508;2024-02-28T02:07:50;53;41;26
34240;PMS7003;20503;50.200;19.508;2024-02-28T02:08:52;56;42;27
34240;PMS7003;20503;50.200;19.508;2024-02-28T02:09:53;56;42;27
34240;PMS7003;20503;50.200;19.508;2024-02-28T02:10:58;59;43;27
34240;PMS7003;20503;50.200;19.508;2024-02-28T02:12:00;60;46;28
34240;PMS7003;20503;50.200;19.508;2024-02-28T02:14:10;60;45;28
34240;PMS7003;20503;50.200;19.508;2024-02-28T02:15:12;60;45;28
34240;PMS7003;20503;50.200;19.508;2024-02-28T02:16:13;60;44;28
34240;PMS7003;20503;50.200;19.508;2024-02-28T02:17:15;60;45;27
34240;PMS7003;20503;50.200;19.508;2024-02-28T02:18:16;60;45;27
34240;PMS7003;20503;50.200;19.508;2024-02-28T02:19:17;58;45;28
34240;PMS7003;20503;50.200;19.508;2024-02-28T02:20:23;58;45;28
34240;PMS7003;20503;50.200;19.508;2024-02-28T02:21:31;60;46;27
34240;PMS7003;20503;50.200;19.508;2024-02-28T02:22:38;60;46;27
34240;PMS7003;20503;50.200;19.508;2024-02-28T02:23:40;58;44;27
34240;PMS7003;20503;50.200;19.508;2024-02-28T02:24:43;61;44;27
34240;PMS7003;20503;50.200;19.508;2024-02-28T02:25:45;61;44;27
34240;PMS7003;20503;50.200;19.508;2024-02-28T02:26:54;57;44;27
34240;PMS7003;20503;50.200;19.508;2024-02-28T02:27:58;57;44;27
34240;PMS7003;20503;50.200;19.508;2024-02-28T02:29:00;60;45;27
34240;PMS7003;20503;50.200;19.508;2024-02-28T02:30:01;60;45;27
34240;PMS7003;20503;50.200;19.508;2024-02-28T02:31:03;55;43;27
34240;PMS7003;20503;50.200;19.508;2024-02-28T02:32:07;59;43;26
34240;PMS7003;20503;50.200;19.508;2024-02-28T02:33:09;56;43;27
34240;PMS7003;20503;50.200;19.508;2024-02-28T02:34:10;60;46;29
34240;PMS7003;20503;50.200;19.508;2024-02-28T02:35:12;60;46;29
34240;PMS7003;20503;50.200;19.508;2024-02-28T02:36:14;59;46;28
34240;PMS7003;20503;50.200;19.508;2024-02-28T02:37:16;59;46;28
34240;PMS7003;20503;50.200;19.508;2024-02-28T02:38:17;59;45;28
34240;PMS7003;20503;50.200;19.508;2024-02-28T02:39:18;59;44;27
34240;PMS7003;20503;50.200;19.508;2024-02-28T02:40:20;59;44;27
34240;PMS7003;20503;50.200;19.508;2024-02-28T02:41:21;58;43;27
34240;PMS7003;20503;50.200;19.508;2024-02-28T02:42:22;58;43;27
34240;PMS7003;20503;50.200;19.508;2024-02-28T02:43:24;57;43;27
34240;PMS7003;20503;50.200;19.508;2024-02-28T02:44:25;56;42;26
34240;PMS7003;20503;50.200;19.508;2024-02-28T02:45:26;56;42;26
34240;PMS7003;20503;50.200;19.508;2024-02-28T02:46:28;54;42;26
34240;PMS7003;20503;50.200;19.508;2024-02-28T02:47:29;54;42;26
34240;PMS7003;20503;50.200;19.508;2024-02-28T02:48:32;59;42;27
34240;PMS7003;20503;50.200;19.508;2024-02-28T02:49:34;59;42;27
34240;PMS7003;20503;50.200;19.508;2024-02-28T02:50:35;52;41;26
34240;PMS7003;20503;50.200;19.508;2024-02-28T02:51:37;55;43;27
34240;PMS7003;20503;50.200;19.508;2024-02-28T02:52:38;61;47;29
34240;PMS7003;20503;50.200;19.508;2024-02-28T02:53:40;61;47;29
34240;PMS7003;20503;50.200;19.508;2024-02-28T02:54:41;65;49;30
34240;PMS7003;20503;50.200;19.508;2024-02-28T02:55:43;65;49;30
34240;PMS7003;20503;50.200;19.508;2024-02-28T02:56:44;53;41;26
34240;PMS7003;20503;50.200;19.508;2024-02-28T02:57:46;48;38;24
34240;PMS7003;20503;50.200;19.508;2024-02-28T02:58:48;48;38;24
34240;PMS7003;20503;50.200;19.508;2024-02-28T02:59:49;39;34;22
34240;PMS7003;20503;50.200;19.508;2024-02-28T03:00:50;39;34;22
34240;PMS7003;20503;50.200;19.508;2024-02-28T03:01:52;37;32;21
34240;PMS7003;20503;50.200;19.508;2024-02-28T03:02:54;44;36;22
34240;PMS7003;20503;50.200;19.508;2024-02-28T03:03:57;44;36;22
34240;PMS7003;20503;50.200;19.508;2024-02-28T03:04:58;36;30;20
34240;PMS7003;20503;50.200;19.508;2024-02-28T03:05:59;36;30;20
34240;PMS7003;20503;50.200;19.508;2024-02-28T03:07:00;36;27;18
34240;PMS7003;20503;50.200;19.508;2024-02-28T03:08:02;35;25;16
34240;PMS7003;20503;50.200;19.508;2024-02-28T03:09:03;35;25;16
34240;PMS7003;20503;50.200;19.508;2024-02-28T03:10:15;33;29;18
34240;PMS7003;20503;50.200;19.508;2024-02-28T03:11:16;33;29;18
34240;PMS7003;20503;50.200;19.508;2024-02-28T03:12:17;48;36;24
34240;PMS7003;20503;50.200;19.508;2024-02-28T03:13:19;48;36;24
34240;PMS7003;20503;50.200;19.508;2024-02-28T03:14:21;52;39;25
34240;PMS7003;20503;50.200;19.508;2024-02-28T03:15:26;52;39;25
34240;PMS7003;20503;50.200;19.508;2024-02-28T03:16:27;55;42;26
34240;PMS7003;20503;50.200;19.508;2024-02-28T03:17:38;52;41;26
34240;PMS7003;20503;50.200;19.508;2024-02-28T03:18:40;57;44;26
34240;PMS7003;20503;50.200;19.508;2024-02-28T03:19:41;57;44;26
34240;PMS7003;20503;50.200;19.508;2024-02-28T03:20:44;57;43;26
34240;PMS7003;20503;50.200;19.508;2024-02-28T03:21:46;56;43;27
34240;PMS7003;20503;50.200;19.508;2024-02-28T03:22:47;56;43;27
34240;PMS7003;20503;50.200;19.508;2024-02-28T03:23:48;54;42;27
34240;PMS7003;20503;50.200;19.508;2024-02-28T03:24:49;54;42;27
34240;PMS7003;20503;50.200;19.508;2024-02-28T03:25:51;55;41;26
34240;PMS7003;20503;50.200;19.508;2024-02-28T03:26:52;55;41;26
34240;PMS7003;20503;50.200;19.508;2024-02-28T03:27:53;49;38;24
34240;PMS7003;20503;50.200;19.508;2024-02-28T03:28:56;49;38;24
34240;PMS7003;20503;50.200;19.508;2024-02-28T03:29:58;42;34;22
34240;PMS7003;20503;50.200;19.508;2024-02-28T03:30:59;39;32;20
34240;PMS7003;20503;50.200;19.508;2024-02-28T03:32:01;39;32;20
34240;PMS7003;20503;50.200;19.508;2024-02-28T03:33:02;34;27;18
34240;PMS7003;20503;50.200;19.508;2024-02-28T03:34:04;32;25;17
34240;PMS7003;20503;50.200;19.508;2024-02-28T03:35:06;29;23;16
34240;PMS7003;20503;50.200;19.508;2024-02-28T03:36:09;29;23;16
34240;PMS7003;20503;50.200;19.508;2024-02-28T03:37:10;30;26;16
34240;PMS7003;20503;50.200;19.508;2024-02-28T03:38:22;32;26;17
34240;PMS7003;20503;50.200;19.508;2024-02-28T03:39:23;29;27;20
34240;PMS7003;20503;50.200;19.508;2024-02-28T03:40:25;34;28;18
34240;PMS7003;20503;50.200;19.508;2024-02-28T03:41:27;37;30;18
34240;PMS7003;20503;50.200;19.508;2024-02-28T03:42:52;38;32;21
34240;PMS7003;20503;50.200;19.508;2024-02-28T03:43:55;42;33;20
34240;PMS7003;20503;50.200;19.508;2024-02-28T03:44:57;41;33;23
34240;PMS7003;20503;50.200;19.508;2024-02-28T03:46:09;46;37;22
34240;PMS7003;20503;50.200;19.508;2024-02-28T03:47:10;46;37;22
34240;PMS7003;20503;50.200;19.508;2024-02-28T03:48:12;45;36;24
34240;PMS7003;20503;50.200;19.508;2024-02-28T03:49:13;45;36;24
34240;PMS7003;20503;50.200;19.508;2024-02-28T03:50:14;49;38;24
34240;PMS7003;20503;50.200;19.508;2024-02-28T03:51:16;49;39;24
34240;PMS7003;20503;50.200;19.508;2024-02-28T03:52:17;49;39;24
34240;PMS7003;20503;50.200;19.508;2024-02-28T03:53:19;45;37;24
34240;PMS7003;20503;50.200;19.508;2024-02-28T03:54:21;45;37;24
34240;PMS7003;20503;50.200;19.508;2024-02-28T03:55:23;46;37;24
34240;PMS7003;20503;50.200;19.508;2024-02-28T03:56:25;46;37;24
34240;PMS7003;20503;50.200;19.508;2024-02-28T03:57:26;42;36;24
34240;PMS7003;20503;50.200;19.508;2024-02-28T03:58:28;43;35;23
34240;PMS7003;20503;50.200;19.508;2024-02-28T03:59:30;43;35;23
34240;PMS7003;20503;50.200;19.508;2024-02-28T04:00:31;41;34;22
34240;PMS7003;20503;50.200;19.508;2024-02-28T04:01:33;41;34;22
34240;PMS7003;20503;50.200;19.508;2024-02-28T04:02:44;40;33;21
34240;PMS7003;20503;50.200;19.508;2024-02-28T04:04:06;40;33;21
34240;PMS7003;20503;50.200;19.508;2024-02-28T04:05:08;40;33;22
34240;PMS7003;20503;50.200;19.508;2024-02-28T04:06:10;40;33;22
34240;PMS7003;20503;50.200;19.508;2024-02-28T04:07:14;41;35;23
34240;PMS7003;20503;50.200;19.508;2024-02-28T04:08:15;41;35;23
34240;PMS7003;20503;50.200;19.508;2024-02-28T04:09:17;40;34;22
34240;PMS7003;20503;50.200;19.508;2024-02-28T04:10:18;35;28;20
34240;PMS7003;20503;50.200;19.508;2024-02-28T04:11:19;32;26;18
34240;PMS7003;20503;50.200;19.508;2024-02-28T04:12:22;29;24;16
34240;PMS7003;20503;50.200;19.508;2024-02-28T04:13:23;29;24;16
34240;PMS7003;20503;50.200;19.508;2024-02-28T04:14:25;28;25;17
34240;PMS7003;20503;50.200;19.508;2024-02-28T04:15:26;28;25;17
34240;PMS7003;20503;50.200;19.508;2024-02-28T04:16:28;30;24;17
34240;PMS7003;20503;50.200;19.508;2024-02-28T04:17:30;33;25;17
34240;PMS7003;20503;50.200;19.508;2024-02-28T04:18:31;33;26;17
34240;PMS7003;20503;50.200;19.508;2024-02-28T04:19:35;34;27;18
34240;PMS7003;20503;50.200;19.508;2024-02-28T04:20:39;34;27;18
34240;PMS7003;20503;50.200;19.508;2024-02-28T04:21:41;32;23;17
34240;PMS7003;20503;50.200;19.508;2024-02-28T04:22:42;35;29;20
34240;PMS7003;20503;50.200;19.508;2024-02-28T04:23:43;36;31;21
34240;PMS7003;20503;50.200;19.508;2024-02-28T04:24:45;36;31;21
34240;PMS7003;20503;50.200;19.508;2024-02-28T04:25:46;41;32;22
34240;PMS7003;20503;50.200;19.508;2024-02-28T04:26:48;38;33;21
34240;PMS7003;20503;50.200;19.508;2024-02-28T04:27:49;40;33;21
34240;PMS7003;20503;50.200;19.508;2024-02-28T04:28:50;40;33;21
34240;PMS7003;20503;50.200;19.508;2024-02-28T04:29:52;43;34;23
34240;PMS7003;20503;50.200;19.508;2024-02-28T04:30:53;43;34;23
34240;PMS7003;20503;50.200;19.508;2024-02-28T04:31:56;44;34;22
34240;PMS7003;20503;50.200;19.508;2024-02-28T04:33:19;38;30;21
34240;PMS7003;20503;50.200;19.508;2024-02-28T04:34:20;38;30;21
34240;PMS7003;20503;50.200;19.508;2024-02-28T04:35:21;41;32;20
34240;PMS7003;20503;50.200;19.508;2024-02-28T04:36:22;41;32;20
34240;PMS7003;20503;50.200;19.508;2024-02-28T04:37:24;43;34;23
34240;PMS7003;20503;50.200;19.508;2024-02-28T04:38:38;42;31;20
34240;PMS7003;20503;50.200;19.508;2024-02-28T04:39:39;63;50;29
34240;PMS7003;20503;50.200;19.508;2024-02-28T04:40:41;63;50;29
34240;PMS7003;20503;50.200;19.508;2024-02-28T04:41:42;151;115;56
34240;PMS7003;20503;50.200;19.508;2024-02-28T04:42:44;128;94;45
34240;PMS7003;20503;50.200;19.508;2024-02-28T04:43:46;128;94;45
34240;PMS7003;20503;50.200;19.508;2024-02-28T04:44:47;92;62;35
34240;PMS7003;20503;50.200;19.508;2024-02-28T04:45:48;92;62;35
34240;PMS7003;20503;50.200;19.508;2024-02-28T04:46:50;75;52;29
34240;PMS7003;20503;50.200;19.508;2024-02-28T04:47:51;75;52;29
34240;PMS7003;20503;50.200;19.508;2024-02-28T04:48:57;80;57;31
34240;PMS7003;20503;50.200;19.508;2024-02-28T04:49:58;61;43;24
34240;PMS7003;20503;50.200;19.508;2024-02-28T04:51:00;49;36;21
34240;PMS7003;20503;50.200;19.508;2024-02-28T04:52:03;57;41;23
34240;PMS7003;20503;50.200;19.508;2024-02-28T04:53:26;63;44;25
34240;PMS7003;20503;50.200;19.508;2024-02-28T04:54:28;63;43;24
34240;PMS7003;20503;50.200;19.508;2024-02-28T04:55:29;63;43;24
34240;PMS7003;20503;50.200;19.508;2024-02-28T04:56:39;69;50;27
34240;PMS7003;20503;50.200;19.508;2024-02-28T04:57:42;43;34;19
34240;PMS7003;20503;50.200;19.508;2024-02-28T04:58:43;43;34;19
34240;PMS7003;20503;50.200;19.508;2024-02-28T04:59:44;41;30;18
34240;PMS7003;20503;50.200;19.508;2024-02-28T05:00:47;31;26;16
34240;PMS7003;20503;50.200;19.508;2024-02-28T05:01:48;28;23;14
34240;PMS7003;20503;50.200;19.508;2024-02-28T05:02:50;28;23;14
34240;PMS7003;20503;50.200;19.508;2024-02-28T05:03:51;56;42;23
34240;PMS7003;20503;50.200;19.508;2024-02-28T05:04:52;56;42;23
34240;PMS7003;20503;50.200;19.508;2024-02-28T05:05:54;42;32;18
34240;PMS7003;20503;50.200;19.508;2024-02-28T05:06:55;32;24;16
34240;PMS7003;20503;50.200;19.508;2024-02-28T05:08:22;30;20;14
34240;PMS7003;20503;50.200;19.508;2024-02-28T05:09:24;30;20;14
34240;PMS7003;20503;50.200;19.508;2024-02-28T05:10:25;27;21;14
34240;PMS7003;20503;50.200;19.508;2024-02-28T05:11:27;31;23;15
34240;PMS7003;20503;50.200;19.508;2024-02-28T05:12:28;31;23;15
34240;PMS7003;20503;50.200;19.508;2024-02-28T05:13:29;29;24;16
34240;PMS7003;20503;50.200;19.508;2024-02-28T05:14:30;29;24;16
34240;PMS7003;20503;50.200;19.508;2024-02-28T05:15:32;26;23;16
34240;PMS7003;20503;50.200;19.508;2024-02-28T05:16:33;26;23;16
34240;PMS7003;20503;50.200;19.508;2024-02-28T05:17:34;32;25;16
34240;PMS7003;20503;50.200;19.508;2024-02-28T05:18:41;51;37;21
34240;PMS7003;20503;50.200;19.508;2024-02-28T05:19:47;46;34;17
34240;PMS7003;20503;50.200;19.508;2024-02-28T05:20:49;66;48;27
34240;PMS7003;20503;50.200;19.508;2024-02-28T05:21:50;66;48;27
34240;PMS7003;20503;50.200;19.508;2024-02-28T05:22:51;65;46;26
34240;PMS7003;20503;50.200;19.508;2024-02-28T05:23:53;65;46;26
34240;PMS7003;20503;50.200;19.508;2024-02-28T05:24:54;45;34;20
34240;PMS7003;20503;50.200;19.508;2024-02-28T05:26:15;44;33;22
34240;PMS7003;20503;50.200;19.508;2024-02-28T05:27:16;44;33;22
34240;PMS7003;20503;50.200;19.508;2024-02-28T05:28:17;37;30;21
34240;PMS7003;20503;50.200;19.508;2024-02-28T05:29:19;39;30;20
34240;PMS7003;20503;50.200;19.508;2024-02-28T05:30:20;38;30;21
34240;PMS7003;20503;50.200;19.508;2024-02-28T05:31:25;38;30;20
34240;PMS7003;20503;50.200;19.508;2024-02-28T05:32:29;35;32;21
34240;PMS7003;20503;50.200;19.508;2024-02-28T05:33:30;35;32;21
34240;PMS7003;20503;50.200;19.508;2024-02-28T05:34:51;36;30;21
34240;PMS7003;20503;50.200;19.508;2024-02-28T05:35:53;34;29;20
34240;PMS7003;20503;50.200;19.508;2024-02-28T05:36:54;34;29;20
34240;PMS7003;20503;50.200;19.508;2024-02-28T05:37:55;32;27;19
34240;PMS7003;20503;50.200;19.508;2024-02-28T05:38:58;40;31;20
34240;PMS7003;20503;50.200;19.508;2024-02-28T05:40:03;36;29;19
34240;PMS7003;20503;50.200;19.508;2024-02-28T05:41:07;36;29;19
34240;PMS7003;20503;50.200;19.508;2024-02-28T05:42:08;32;28;18
34240;PMS7003;20503;50.200;19.508;2024-02-28T05:43:10;32;28;18
34240;PMS7003;20503;50.200;19.508;2024-02-28T05:44:12;31;26;18
34240;PMS7003;20503;50.200;19.508;2024-02-28T05:45:13;31;26;18
34240;PMS7003;20503;50.200;19.508;2024-02-28T05:46:33;35;27;19
34240;PMS7003;20503;50.200;19.508;2024-02-28T05:47:37;32;27;20
34240;PMS7003;20503;50.200;19.508;2024-02-28T05:48:42;40;31;19
34240;PMS7003;20503;50.200;19.508;2024-02-28T05:49:44;40;31;19
34240;PMS7003;20503;50.200;19.508;2024-02-28T05:50:45;35;27;18
34240;PMS7003;20503;50.200;19.508;2024-02-28T05:51:47;31;26;18
34240;PMS7003;20503;50.200;19.508;2024-02-28T05:52:48;31;26;18
34240;PMS7003;20503;50.200;19.508;2024-02-28T05:53:49;35;28;19
34240;PMS7003;20503;50.200;19.508;2024-02-28T05:54:52;35;28;19
34240;PMS7003;20503;50.200;19.508;2024-02-28T05:56:03;36;31;19
34240;PMS7003;20503;50.200;19.508;2024-02-28T05:57:15;36;31;20
34240;PMS7003;20503;50.200;19.508;2024-02-28T05:58:16;36;31;20
34240;PMS7003;20503;50.200;19.508;2024-02-28T05:59:18;35;29;20
34240;PMS7003;20503;50.200;19.508;2024-02-28T06:00:19;35;29;20
34240;PMS7003;20503;50.200;19.508;2024-02-28T06:01:21;48;40;25
34240;PMS7003;20503;50.200;19.508;2024-02-28T06:02:38;44;36;24
34240;PMS7003;20503;50.200;19.508;2024-02-28T06:03:40;46;35;23
34240;PMS7003;20503;50.200;19.508;2024-02-28T06:04:42;46;35;23
34240;PMS7003;20503;50.200;19.508;2024-02-28T06:05:43;42;34;23
34240;PMS7003;20503;50.200;19.508;2024-02-28T06:06:45;43;36;23
34240;PMS7003;20503;50.200;19.508;2024-02-28T06:07:46;43;36;23
34240;PMS7003;20503;50.200;19.508;2024-02-28T06:08:57;55;42;28
34240;PMS7003;20503;50.200;19.508;2024-02-28T06:09:59;55;42;28
34240;PMS7003;20503;50.200;19.508;2024-02-28T06:11:01;53;43;28
34240;PMS7003;20503;50.200;19.508;2024-02-28T06:12:14;70;53;35
34240;PMS7003;20503;50.200;19.508;2024-02-28T06:13:23;59;42;28
34240;PMS7003;20503;50.200;19.508;2024-02-28T06:14:52;56;44;27
34240;PMS7003;20503;50.200;19.508;2024-02-28T06:16:02;52;42;26
34240;PMS7003;20503;50.200;19.508;2024-02-28T06:17:05;52;42;26
34240;PMS7003;20503;50.200;19.508;2024-02-28T06:18:07;51;39;26
34240;PMS7003;20503;50.200;19.508;2024-02-28T06:19:09;49;39;26
34240;PMS7003;20503;50.200;19.508;2024-02-28T06:20:11;46;37;25
34240;PMS7003;20503;50.200;19.508;2024-02-28T06:21:13;46;37;25
34240;PMS7003;20503;50.200;19.508;2024-02-28T06:22:15;50;39;26
34240;PMS7003;20503;50.200;19.508;2024-02-28T06:23:21;50;39;26
34240;PMS7003;20503;50.200;19.508;2024-02-28T06:24:24;60;47;30
34240;PMS7003;20503;50.200;19.508;2024-02-28T06:25:25;53;42;27
34240;PMS7003;20503;50.200;19.508;2024-02-28T06:26:29;53;42;27
34240;PMS7003;20503;50.200;19.508;2024-02-28T06:27:44;47;39;25
34240;PMS7003;20503;50.200;19.508;2024-02-28T06:29:13;48;38;25
34240;PMS7003;20503;50.200;19.508;2024-02-28T06:30:16;51;41;26
34240;PMS7003;20503;50.200;19.508;2024-02-28T06:31:18;49;39;25
34240;PMS7003;20503;50.200;19.508;2024-02-28T06:32:20;45;36;25
34240;PMS7003;20503;50.200;19.508;2024-02-28T06:33:26;45;36;25
34240;PMS7003;20503;50.200;19.508;2024-02-28T06:34:27;38;29;19
34240;PMS7003;20503;50.200;19.508;2024-02-28T06:35:29;38;29;19
34240;PMS7003;20503;50.200;19.508;2024-02-28T06:36:30;33;29;19
34240;PMS7003;20503;50.200;19.508;2024-02-28T06:37:31;33;27;18
34240;PMS7003;20503;50.200;19.508;2024-02-28T06:38:33;33;27;18
34240;PMS7003;20503;50.200;19.508;2024-02-28T06:39:35;48;36;23
34240;PMS7003;20503;50.200;19.508;2024-02-28T06:40:36;53;37;23
34240;PMS7003;20503;50.200;19.508;2024-02-28T06:41:39;54;40;25
34240;PMS7003;20503;50.200;19.508;2024-02-28T06:42:40;56;41;27
34240;PMS7003;20503;50.200;19.508;2024-02-28T06:43:41;56;41;27
34240;PMS7003;20503;50.200;19.508;2024-02-28T06:44:42;57;41;26